createdAt,value
2023-04-16T00:00:00.765Z,81.21
2023-04-16T00:02:03.038Z,81.10
2023-04-16T00:03:57.217Z,81.36
2023-04-16T00:05:39.018Z,81.34
2023-04-16T00:07:18.097Z,81.42
2023-04-16T00:08:52.766Z,81.48
2023-04-16T00:10:26.196Z,81.21
2023-04-16T00:12:11.134Z,81.30
2023-04-16T00:13:33.121Z,81.14
2023-04-16T00:15:04.712Z,81.08
2023-04-16T00:16:45.655Z,81.10
2023-04-16T00:18:21.444Z,80.94
2023-04-16T00:19:54.481Z,81.17
2023-04-16T00:21:39.746Z,81.17
2023-04-16T00:23:25.589Z,80.99
2023-04-16T00:25:19.126Z,80.83
2023-04-16T00:27:04.050Z,81.18
2023-04-16T00:28:40.330Z,81.35
2023-04-16T00:30:26.796Z,81.27
2023-04-16T00:32:07.575Z,80.87
2023-04-16T00:33:42.912Z,80.72
2023-04-16T00:35:27.376Z,80.76
2023-04-16T00:36:49.588Z,80.75
2023-04-16T00:38:35.298Z,80.76
2023-04-16T00:40:10.962Z,80.80
2023-04-16T00:41:56.139Z,80.85
2023-04-16T00:43:41.148Z,80.99
2023-04-16T00:45:22.125Z,81.00
2023-04-16T00:47:17.097Z,80.98
2023-04-16T00:49:02.195Z,81.05
2023-04-16T00:50:47.826Z,80.90
2023-04-16T00:52:28.656Z,80.76
2023-04-16T00:54:10.744Z,80.80
2023-04-16T00:55:44.540Z,80.75
2023-04-16T00:57:27.226Z,80.82
2023-04-16T00:58:51.206Z,80.69
2023-04-16T01:00:43.628Z,80.85
2023-04-16T01:02:29.069Z,80.90
2023-04-16T01:04:01.677Z,80.58
2023-04-16T01:05:35.539Z,80.39
2023-04-16T01:07:16.148Z,80.63
2023-04-16T01:09:01.678Z,80.57
2023-04-16T01:10:34.822Z,80.38
2023-04-16T01:12:24.696Z,80.58
2023-04-16T01:13:48.089Z,80.62
2023-04-16T01:15:33.069Z,80.60
2023-04-16T01:17:20.538Z,80.60
2023-04-16T01:18:48.381Z,80.75
2023-04-16T01:20:09.951Z,80.48
2023-04-16T01:21:39.322Z,80.51
2023-04-16T01:23:24.326Z,80.68
2023-04-16T01:25:17.740Z,80.45
2023-04-16T01:27:03.172Z,80.50
2023-04-16T01:28:49.036Z,80.65
2023-04-16T01:30:34.389Z,80.67
2023-04-16T01:32:26.415Z,80.47
2023-04-16T01:34:02.322Z,80.32
2023-04-16T01:35:53.177Z,80.36
2023-04-16T01:37:38.643Z,80.48
2023-04-16T01:39:19.394Z,80.36
2023-04-16T01:41:04.645Z,80.25
2023-04-16T01:42:46.052Z,80.29
2023-04-16T01:44:30.932Z,80.27
2023-04-16T01:46:25.031Z,80.38
2023-04-16T01:48:02.206Z,80.39
2023-04-16T01:49:36.178Z,80.48
2023-04-16T01:51:00.679Z,80.45
2023-04-16T01:52:41.783Z,80.43
2023-04-16T01:54:04.298Z,80.39
2023-04-16T01:55:39.904Z,80.52
2023-04-16T01:57:14.253Z,80.60
2023-04-16T01:58:49.862Z,80.64
2023-04-16T02:00:21.038Z,80.49
2023-04-16T02:01:43.749Z,80.26
2023-04-16T02:03:06.130Z,80.10
2023-04-16T02:04:34.182Z,80.12
2023-04-16T02:06:24.169Z,80.22
2023-04-16T02:07:53.873Z,80.27
2023-04-16T02:09:39.022Z,80.31
2023-04-16T02:11:02.526Z,80.20
2023-04-16T02:12:39.676Z,80.42
2023-04-16T02:14:25.545Z,80.39
2023-04-16T02:16:04.514Z,80.37
2023-04-16T02:18:07.996Z,80.42
2023-04-16T02:19:54.288Z,80.59
2023-04-16T02:21:43.870Z,80.81
2023-04-16T02:23:27.088Z,80.90
2023-04-16T02:24:53.156Z,80.82
2023-04-16T02:26:24.339Z,80.89
2023-04-16T02:27:58.478Z,80.75
2023-04-16T02:29:49.442Z,80.90
2023-04-16T02:31:23.717Z,80.81
2023-04-16T02:33:04.871Z,81.09
2023-04-16T02:34:27.671Z,80.94
2023-04-16T02:36:13.105Z,81.28
2023-04-16T02:37:57.724Z,81.08
2023-04-16T02:39:42.912Z,81.36
2023-04-16T02:41:23.379Z,81.20
2023-04-16T02:42:57.850Z,81.12
2023-04-16T02:44:34.380Z,81.27
2023-04-16T02:46:04.468Z,80.95
2023-04-16T02:47:38.433Z,81.22
2023-04-16T02:49:23.943Z,81.45
2023-04-16T02:50:50.950Z,80.96
2023-04-16T02:52:27.229Z,80.76
2023-04-16T02:54:20.104Z,81.10
2023-04-16T02:55:54.294Z,81.40
2023-04-16T02:57:28.077Z,81.21
2023-04-16T02:59:04.354Z,81.27
2023-04-16T03:00:50.145Z,80.88
2023-04-16T03:02:14.551Z,80.95
2023-04-16T03:04:07.337Z,81.19
2023-04-16T03:05:56.164Z,81.37
2023-04-16T03:07:41.461Z,81.45
2023-04-16T03:09:15.182Z,81.55
2023-04-16T03:10:48.711Z,81.33
2023-04-16T03:12:24.645Z,81.21
2023-04-16T03:14:01.012Z,81.21
2023-04-16T03:15:42.297Z,81.30
2023-04-16T03:17:20.432Z,81.09
2023-04-16T03:18:45.153Z,80.97
2023-04-16T03:20:11.545Z,80.80
2023-04-16T03:22:02.242Z,80.94
2023-04-16T03:23:51.228Z,81.25
2023-04-16T03:25:16.777Z,81.21
2023-04-16T03:27:02.896Z,80.83
2023-04-16T03:28:36.211Z,81.06
2023-04-16T03:30:20.587Z,81.03
2023-04-16T03:32:02.236Z,81.16
2023-04-16T03:33:34.273Z,81.27
2023-04-16T03:35:24.254Z,81.20
2023-04-16T03:37:09.712Z,81.01
2023-04-16T03:38:43.947Z,81.22
2023-04-16T03:40:29.366Z,81.21
2023-04-16T03:42:03.068Z,81.47
2023-04-16T03:43:39.468Z,81.24
2023-04-16T03:45:16.568Z,81.26
2023-04-16T03:46:57.735Z,81.32
2023-04-16T03:48:31.426Z,81.35
2023-04-16T03:50:16.404Z,81.40
2023-04-16T03:51:50.329Z,81.05
2023-04-16T03:53:23.774Z,81.12
2023-04-16T03:55:14.362Z,80.75
2023-04-16T03:57:02.130Z,80.98
2023-04-16T03:58:38.781Z,80.44
2023-04-16T04:00:14.685Z,80.63
2023-04-16T04:01:36.544Z,80.55
2023-04-16T04:03:22.760Z,80.75
2023-04-16T04:04:57.816Z,80.89
2023-04-16T04:06:33.747Z,80.50
2023-04-16T04:07:58.615Z,80.47
2023-04-16T04:09:43.878Z,80.39
2023-04-16T04:11:24.494Z,80.58
2023-04-16T04:13:10.929Z,80.52
2023-04-16T04:14:53.061Z,80.44
2023-04-16T04:16:28.502Z,80.38
2023-04-16T04:18:13.190Z,80.45
2023-04-16T04:21:35.704Z,80.28
2023-04-16T04:23:23.693Z,80.17
2023-04-16T04:25:10.188Z,80.30
2023-04-16T04:27:02.729Z,80.06
2023-04-16T04:28:54.724Z,80.31
2023-04-16T04:30:40.183Z,80.54
2023-04-16T04:32:25.449Z,80.59
2023-04-16T04:33:55.755Z,80.48
2023-04-16T04:35:29.673Z,80.44
2023-04-16T04:37:04.016Z,80.55
2023-04-16T04:38:38.012Z,80.44
2023-04-16T04:40:22.962Z,80.16
2023-04-16T04:41:59.754Z,80.55
2023-04-16T04:43:34.563Z,80.51
2023-04-16T04:45:19.727Z,80.63
2023-04-16T04:46:44.613Z,80.60
2023-04-16T04:48:32.723Z,80.66
2023-04-16T04:50:06.592Z,80.42
2023-04-16T04:51:41.180Z,80.26
2023-04-16T04:53:23.240Z,80.42
2023-04-16T04:54:47.735Z,80.13
2023-04-16T04:56:21.695Z,80.40
2023-04-16T04:57:58.043Z,80.27
2023-04-16T04:59:32.328Z,80.54
2023-04-16T05:01:05.986Z,80.41
2023-04-16T05:02:39.641Z,80.44
2023-04-16T05:04:04.564Z,80.24
2023-04-16T05:05:38.216Z,80.32
2023-04-16T05:07:19.272Z,80.29
2023-04-16T05:08:55.331Z,80.13
2023-04-16T05:10:30.272Z,80.20
2023-04-16T05:12:17.600Z,79.96
2023-04-16T05:13:53.892Z,80.16
2023-04-16T05:15:28.116Z,79.60
2023-04-16T05:17:14.358Z,79.53
2023-04-16T05:19:00.722Z,79.37
2023-04-16T05:20:38.027Z,79.43
2023-04-16T05:22:23.126Z,79.37
2023-04-16T05:23:45.387Z,79.65
2023-04-16T05:25:31.365Z,79.51
2023-04-16T05:27:04.465Z,79.00
2023-04-16T05:28:38.554Z,78.76
2023-04-16T05:30:19.148Z,78.86
2023-04-16T05:31:55.516Z,78.69
2023-04-16T05:33:40.961Z,78.71
2023-04-16T05:35:17.208Z,79.02
2023-04-16T05:36:40.487Z,78.97
2023-04-16T05:38:21.100Z,78.79
2023-04-16T05:40:09.183Z,79.27
2023-04-16T05:41:43.002Z,79.14
2023-04-16T05:43:28.688Z,78.83
2023-04-16T05:44:53.544Z,78.53
2023-04-16T05:46:39.078Z,78.48
2023-04-16T05:48:15.326Z,78.29
2023-04-16T05:50:01.148Z,78.25
2023-04-16T05:51:25.448Z,78.17
2023-04-16T05:52:59.208Z,78.34
2023-04-16T05:54:52.898Z,78.48
2023-04-16T05:56:33.801Z,78.11
2023-04-16T05:58:05.876Z,77.81
2023-04-16T06:00:00.109Z,78.09
2023-04-16T06:01:35.498Z,77.82
2023-04-16T06:02:57.495Z,77.62
2023-04-16T06:04:38.567Z,77.71
2023-04-16T06:06:15.490Z,77.49
2023-04-16T06:08:04.545Z,77.36
2023-04-16T06:09:37.948Z,77.67
2023-04-16T06:11:13.522Z,77.81
2023-04-16T06:12:50.761Z,77.77
2023-04-16T06:14:26.295Z,77.96
2023-04-16T06:16:03.574Z,77.90
2023-04-16T06:17:49.060Z,77.95
2023-04-16T06:19:22.870Z,77.75
2023-04-16T06:20:56.351Z,77.41
2023-04-16T06:22:29.807Z,77.28
2023-04-16T06:24:04.084Z,77.41
2023-04-16T06:25:30.116Z,77.71
2023-04-16T06:27:10.971Z,76.80
2023-04-16T06:28:52.441Z,76.10
2023-04-16T06:30:25.628Z,76.39
2023-04-16T06:32:07.032Z,76.38
2023-04-16T06:33:43.735Z,76.19
2023-04-16T06:35:24.934Z,76.07
2023-04-16T06:37:20.142Z,76.04
2023-04-16T06:39:01.493Z,75.97
2023-04-16T06:40:23.524Z,75.90
2023-04-16T06:42:04.566Z,76.21
2023-04-16T06:43:49.785Z,76.15
2023-04-16T06:45:34.911Z,76.39
2023-04-16T06:47:14.839Z,76.29
2023-04-16T06:48:53.106Z,76.26
2023-04-16T06:50:27.226Z,75.97
2023-04-16T06:52:12.866Z,75.86
2023-04-16T06:53:48.006Z,75.65
2023-04-16T06:55:21.646Z,75.28
2023-04-16T06:56:55.371Z,75.16
2023-04-16T06:58:29.304Z,75.38
2023-04-16T07:00:02.584Z,75.92
2023-04-16T07:01:38.596Z,75.48
2023-04-16T07:03:12.530Z,75.21
2023-04-16T07:05:07.885Z,75.42
2023-04-16T07:07:01.542Z,75.27
2023-04-16T07:08:57.108Z,75.62
2023-04-16T07:10:38.602Z,75.41
2023-04-16T07:12:12.301Z,75.49
2023-04-16T07:14:06.725Z,75.00
2023-04-16T07:15:53.212Z,75.09
2023-04-16T07:17:26.419Z,74.68
2023-04-16T07:19:02.505Z,74.56
2023-04-16T07:20:36.217Z,74.74
2023-04-16T07:22:10.232Z,74.26
2023-04-16T07:23:52.234Z,74.82
2023-04-16T07:25:21.447Z,74.42
2023-04-16T07:27:03.771Z,74.55
2023-04-16T07:28:37.316Z,73.75
2023-04-16T07:30:09.780Z,73.51
2023-04-16T07:31:43.636Z,73.15
2023-04-16T07:33:16.724Z,73.52
2023-04-16T07:34:57.891Z,73.22
2023-04-16T07:36:21.727Z,73.86
2023-04-16T07:37:58.005Z,73.88
2023-04-16T07:39:51.827Z,73.48
2023-04-16T07:41:13.413Z,73.41
2023-04-16T07:42:47.450Z,73.23
2023-04-16T07:44:27.851Z,73.63
2023-04-16T07:46:00.490Z,73.80
2023-04-16T07:47:41.847Z,72.93
2023-04-16T07:49:22.353Z,72.42
2023-04-16T07:51:00.495Z,72.70
2023-04-16T07:52:45.628Z,71.98
2023-04-16T07:54:21.410Z,72.55
2023-04-16T07:55:57.114Z,72.95
2023-04-16T07:57:44.474Z,72.72
2023-04-16T07:59:23.601Z,72.72
2023-04-16T08:00:58.339Z,72.78
2023-04-16T08:02:20.506Z,72.79
2023-04-16T08:03:43.275Z,72.40
2023-04-16T08:05:07.918Z,72.24
2023-04-16T08:06:32.472Z,72.72
2023-04-16T08:08:13.322Z,71.78
2023-04-16T08:12:01.492Z,71.74
2023-04-16T08:13:46.889Z,72.57
2023-04-16T08:15:08.562Z,72.10
2023-04-16T08:16:42.563Z,71.54
2023-04-16T08:18:16.234Z,71.97
2023-04-16T08:20:06.130Z,71.32
2023-04-16T08:21:51.774Z,71.25
2023-04-16T08:23:36.818Z,71.08
2023-04-16T08:25:01.992Z,70.87
2023-04-16T08:26:50.039Z,70.91
2023-04-16T08:28:25.484Z,70.74
2023-04-16T08:29:49.899Z,69.99
2023-04-16T08:31:25.641Z,69.79
2023-04-16T08:33:10.706Z,69.52
2023-04-16T08:34:44.679Z,70.67
2023-04-16T08:36:29.727Z,70.00
2023-04-16T08:37:54.270Z,70.45
2023-04-16T08:39:25.534Z,70.13
2023-04-16T08:41:20.157Z,70.79
2023-04-16T08:42:44.511Z,70.35
2023-04-16T08:44:13.765Z,70.83
2023-04-16T08:46:00.458Z,70.33
2023-04-16T08:47:36.423Z,69.70
2023-04-16T08:49:00.764Z,69.59
2023-04-16T08:50:35.054Z,69.51
2023-04-16T08:52:11.241Z,69.94
2023-04-16T08:54:05.190Z,69.53
2023-04-16T08:55:36.981Z,68.94
2023-04-16T08:57:17.714Z,68.99
2023-04-16T08:59:11.509Z,69.26
2023-04-16T09:00:46.385Z,68.68
2023-04-16T09:02:19.882Z,68.18
2023-04-16T09:04:14.280Z,68.39
2023-04-16T09:06:09.156Z,66.79
2023-04-16T09:07:56.089Z,67.04
2023-04-16T09:09:46.338Z,67.73
2023-04-16T09:11:31.453Z,68.13
2023-04-16T09:13:16.478Z,68.09
2023-04-16T09:15:02.911Z,67.50
2023-04-16T09:16:36.645Z,67.47
2023-04-16T09:18:21.339Z,67.16
2023-04-16T09:19:57.312Z,66.36
2023-04-16T09:21:50.738Z,66.76
2023-04-16T09:23:26.408Z,65.96
2023-04-16T09:25:07.147Z,65.46
2023-04-16T09:26:53.220Z,65.55
2023-04-16T09:28:38.163Z,65.56
2023-04-16T09:30:23.253Z,65.23
2023-04-16T09:32:18.261Z,65.64
2023-04-16T09:33:55.822Z,65.62
2023-04-16T09:35:17.347Z,65.42
2023-04-16T09:36:53.693Z,65.23
2023-04-16T09:38:38.640Z,64.67
2023-04-16T09:40:21.065Z,65.04
2023-04-16T09:41:55.264Z,63.97
2023-04-16T09:43:39.827Z,65.00
2023-04-16T09:45:14.166Z,64.63
2023-04-16T09:46:55.025Z,64.27
2023-04-16T09:48:30.601Z,64.27
2023-04-16T09:50:04.534Z,63.69
2023-04-16T09:51:27.045Z,64.21
2023-04-16T09:53:01.048Z,64.75
2023-04-16T09:54:46.668Z,64.82
2023-04-16T09:56:22.152Z,64.84
2023-04-16T09:58:01.281Z,64.01
2023-04-16T09:59:34.205Z,62.98
2023-04-16T10:01:18.998Z,62.13
2023-04-16T10:03:04.744Z,62.07
2023-04-16T10:04:52.420Z,62.82
2023-04-16T10:06:27.183Z,61.29
2023-04-16T10:08:12.922Z,61.45
2023-04-16T10:10:01.751Z,61.66
2023-04-16T10:11:35.124Z,60.10
2023-04-16T10:13:20.098Z,60.94
2023-04-16T10:14:44.801Z,60.70
2023-04-16T10:16:19.325Z,60.46
2023-04-16T10:17:55.159Z,61.06
2023-04-16T10:19:40.079Z,60.40
2023-04-16T10:21:24.989Z,59.98
2023-04-16T10:22:58.655Z,61.89
2023-04-16T10:24:32.274Z,60.40
2023-04-16T10:26:08.075Z,59.92
2023-04-16T10:27:43.432Z,59.11
2023-04-16T10:29:21.380Z,59.40
2023-04-16T10:30:55.309Z,58.49
2023-04-16T10:32:28.722Z,58.20
2023-04-16T10:34:06.506Z,57.38
2023-04-16T10:36:04.756Z,58.51
2023-04-16T10:37:52.359Z,58.30
2023-04-16T10:39:37.626Z,57.50
2023-04-16T10:41:02.016Z,58.12
2023-04-16T10:42:35.056Z,58.56
2023-04-16T10:44:19.251Z,57.63
2023-04-16T10:46:04.800Z,56.32
2023-04-16T10:47:45.595Z,55.86
2023-04-16T10:49:19.106Z,55.81
2023-04-16T10:51:00.066Z,56.53
2023-04-16T10:52:45.141Z,57.46
2023-04-16T10:54:29.741Z,55.00
2023-04-16T10:56:23.377Z,55.53
2023-04-16T10:57:50.161Z,56.30
2023-04-16T10:59:18.897Z,56.46
2023-04-16T11:01:06.077Z,55.60
2023-04-16T11:02:39.701Z,54.79
2023-04-16T11:04:08.712Z,54.09
2023-04-16T11:06:02.731Z,52.79
2023-04-16T11:07:36.094Z,53.92
2023-04-16T11:09:21.065Z,53.45
2023-04-16T11:10:57.073Z,52.47
2023-04-16T11:12:32.638Z,51.61
2023-04-16T11:14:14.921Z,50.43
2023-04-16T11:15:58.953Z,51.13
2023-04-16T11:17:31.706Z,53.55
2023-04-16T11:19:05.206Z,51.52
2023-04-16T11:20:34.613Z,51.22
2023-04-16T11:22:06.403Z,50.43
2023-04-16T11:23:39.520Z,51.09
2023-04-16T11:25:13.033Z,53.25
2023-04-16T11:26:58.047Z,51.24
2023-04-16T11:28:21.998Z,49.22
2023-04-16T11:29:55.758Z,50.08
2023-04-16T11:31:40.962Z,51.70
2023-04-16T11:33:16.485Z,52.54
2023-04-16T11:34:48.014Z,50.51
2023-04-16T11:36:26.152Z,50.02
2023-04-16T11:37:49.698Z,50.74
2023-04-16T11:39:11.309Z,50.42
2023-04-16T11:40:56.975Z,50.41
2023-04-16T11:42:42.438Z,49.81
2023-04-16T11:44:27.880Z,50.01
2023-04-16T11:48:03.873Z,50.93
2023-04-16T11:49:50.081Z,48.63
2023-04-16T11:51:24.066Z,47.09
2023-04-16T11:52:57.950Z,49.00
2023-04-16T11:54:48.292Z,48.45
2023-04-16T11:56:32.926Z,48.37
2023-04-16T11:58:20.137Z,48.96
2023-04-16T12:00:07.433Z,50.12
2023-04-16T12:01:56.139Z,51.00
2023-04-16T12:03:41.601Z,51.29
2023-04-16T12:05:17.519Z,51.00
2023-04-16T12:06:53.600Z,50.99
2023-04-16T12:08:26.713Z,51.56
2023-04-16T12:09:53.375Z,51.72
2023-04-16T12:11:34.150Z,52.14
2023-04-16T12:13:15.641Z,52.23
2023-04-16T12:14:49.866Z,52.89
2023-04-16T12:16:26.197Z,53.29
2023-04-16T12:18:02.590Z,52.75
2023-04-16T12:19:35.914Z,52.45
2023-04-16T12:21:11.640Z,52.34
2023-04-16T12:22:57.068Z,52.39
2023-04-16T12:24:38.053Z,52.01
2023-04-16T12:26:19.691Z,52.85
2023-04-16T12:28:08.009Z,53.54
2023-04-16T12:29:41.382Z,53.75
2023-04-16T12:31:14.952Z,54.18
2023-04-16T12:32:44.858Z,52.97
2023-04-16T12:34:20.186Z,52.79
2023-04-16T12:36:14.064Z,53.28
2023-04-16T12:37:36.128Z,50.30
2023-04-16T12:39:02.509Z,48.71
2023-04-16T12:40:35.831Z,48.93
2023-04-16T12:42:16.405Z,48.95
2023-04-16T12:44:00.705Z,47.67
2023-04-16T12:45:24.803Z,47.90
2023-04-16T12:47:05.774Z,47.07
2023-04-16T12:48:50.776Z,46.39
2023-04-16T12:50:35.757Z,46.49
2023-04-16T12:52:16.240Z,46.16
2023-04-16T12:54:01.856Z,45.32
2023-04-16T12:55:48.440Z,45.16
2023-04-16T12:57:33.328Z,44.39
2023-04-16T12:59:27.216Z,41.22
2023-04-16T13:01:03.262Z,41.84
2023-04-16T13:02:32.498Z,41.93
2023-04-16T13:04:24.262Z,41.74
2023-04-16T13:06:06.974Z,41.17
2023-04-16T13:07:39.930Z,40.19
2023-04-16T13:09:13.365Z,40.75
2023-04-16T13:10:57.485Z,39.90
2023-04-16T13:12:42.869Z,40.98
2023-04-16T13:14:27.833Z,40.96
2023-04-16T13:16:22.196Z,42.49
2023-04-16T13:18:07.721Z,42.67
2023-04-16T13:19:37.272Z,41.47
2023-04-16T13:21:13.150Z,40.85
2023-04-16T13:22:58.661Z,41.11
2023-04-16T13:24:42.255Z,40.16
2023-04-16T13:26:17.945Z,39.11
2023-04-16T13:28:03.223Z,39.51
2023-04-16T13:29:36.633Z,38.93
2023-04-16T13:31:21.974Z,38.27
2023-04-16T13:33:07.554Z,39.77
2023-04-16T13:34:52.261Z,39.03
2023-04-16T13:36:37.671Z,39.36
2023-04-16T13:38:13.450Z,39.04
2023-04-16T13:39:57.458Z,40.01
2023-04-16T13:41:37.469Z,41.52
2023-04-16T13:43:22.208Z,41.96
2023-04-16T13:44:55.820Z,41.44
2023-04-16T13:46:36.747Z,42.08
2023-04-16T13:48:21.650Z,43.98
2023-04-16T13:50:07.106Z,45.01
2023-04-16T13:52:00.589Z,45.42
2023-04-16T13:53:33.974Z,46.19
2023-04-16T13:55:20.716Z,46.81
2023-04-16T13:56:50.546Z,48.00
2023-04-16T13:58:31.176Z,48.88
2023-04-16T14:00:26.086Z,49.73
2023-04-16T14:02:13.711Z,50.14
2023-04-16T14:04:05.661Z,50.28
2023-04-16T14:05:41.492Z,51.39
2023-04-16T14:07:10.520Z,52.64
2023-04-16T14:08:44.472Z,52.73
2023-04-16T14:10:17.436Z,51.85
2023-04-16T14:12:11.240Z,52.29
2023-04-16T14:13:56.711Z,52.96
2023-04-16T14:15:22.332Z,53.13
2023-04-16T14:17:07.474Z,53.68
2023-04-16T14:18:48.297Z,53.36
2023-04-16T14:20:33.362Z,52.67
2023-04-16T14:22:18.248Z,51.71
2023-04-16T14:23:52.161Z,51.09
2023-04-16T14:25:36.896Z,50.98
2023-04-16T14:27:08.666Z,50.43
2023-04-16T14:28:53.881Z,48.51
2023-04-16T14:30:26.979Z,47.73
2023-04-16T14:32:04.058Z,47.57
2023-04-16T14:33:37.342Z,46.73
2023-04-16T14:35:22.007Z,46.51
2023-04-16T14:36:56.112Z,45.41
2023-04-16T14:38:31.666Z,44.32
2023-04-16T14:40:17.735Z,45.06
2023-04-16T14:41:59.673Z,45.43
2023-04-16T14:43:46.361Z,45.96
2023-04-16T14:45:19.974Z,46.41
2023-04-16T14:46:53.780Z,47.44
2023-04-16T14:48:38.409Z,48.37
2023-04-16T14:50:12.056Z,48.88
2023-04-16T14:51:47.782Z,49.24
2023-04-16T14:53:28.563Z,49.91
2023-04-16T14:55:10.800Z,50.24
2023-04-16T14:57:04.450Z,50.46
2023-04-16T14:58:57.370Z,50.33
2023-04-16T15:00:42.128Z,51.17
2023-04-16T15:02:17.653Z,52.25
2023-04-16T15:04:11.443Z,52.46
2023-04-16T15:05:56.496Z,52.80
2023-04-16T15:07:31.903Z,51.99
2023-04-16T15:08:54.281Z,51.69
2023-04-16T15:10:34.925Z,50.07
2023-04-16T15:12:05.944Z,48.97
2023-04-16T15:13:39.715Z,48.99
2023-04-16T15:15:13.317Z,48.96
2023-04-16T15:16:57.376Z,49.11
2023-04-16T15:18:42.901Z,49.13
2023-04-16T15:20:26.906Z,49.72
2023-04-16T15:22:12.517Z,50.04
2023-04-16T15:23:58.390Z,49.69
2023-04-16T15:25:30.332Z,50.18
2023-04-16T15:27:02.009Z,50.50
2023-04-16T15:28:33.124Z,50.84
2023-04-16T15:30:22.247Z,51.49
2023-04-16T15:32:17.069Z,52.40
2023-04-16T15:34:11.098Z,52.05
2023-04-16T15:35:57.079Z,51.90
2023-04-16T15:37:43.276Z,52.24
2023-04-16T15:39:28.206Z,52.23
2023-04-16T15:41:01.739Z,52.87
2023-04-16T15:42:46.718Z,52.56
2023-04-16T15:44:17.336Z,52.59
2023-04-16T15:46:05.222Z,52.22
2023-04-16T15:47:58.932Z,52.63
2023-04-16T15:49:53.185Z,52.54
2023-04-16T15:51:33.792Z,52.18
2023-04-16T15:53:07.158Z,51.37
2023-04-16T15:54:40.898Z,50.72
2023-04-16T15:56:13.720Z,49.90
2023-04-16T15:57:47.676Z,48.99
2023-04-16T15:59:20.865Z,48.37
2023-04-16T16:00:58.706Z,48.89
2023-04-16T16:02:31.906Z,49.15
2023-04-16T16:04:05.686Z,49.91
2023-04-16T16:05:40.404Z,50.49
2023-04-16T16:07:22.456Z,50.08
2023-04-16T16:08:56.696Z,50.43
2023-04-16T16:10:18.892Z,50.56
2023-04-16T16:12:00.220Z,50.83
2023-04-16T16:13:53.629Z,51.03
2023-04-16T16:15:39.476Z,50.62
2023-04-16T16:17:22.435Z,49.96
2023-04-16T16:18:55.890Z,50.21
2023-04-16T16:20:40.749Z,50.39
2023-04-16T16:22:23.500Z,50.65
2023-04-16T16:24:05.608Z,50.34
2023-04-16T16:25:58.512Z,50.19
2023-04-16T16:27:43.341Z,50.14
2023-04-16T16:29:28.215Z,50.52
2023-04-16T16:31:12.980Z,51.29
2023-04-16T16:32:58.553Z,52.05
2023-04-16T16:34:51.602Z,52.74
2023-04-16T16:36:36.584Z,52.74
2023-04-16T16:38:21.613Z,53.45
2023-04-16T16:40:09.601Z,53.96
2023-04-16T16:41:54.908Z,54.32
2023-04-16T16:43:30.028Z,54.28
2023-04-16T16:45:18.122Z,54.18
2023-04-16T16:47:03.226Z,54.54
2023-04-16T16:48:32.279Z,54.88
2023-04-16T16:50:21.656Z,54.96
2023-04-16T16:52:03.637Z,55.53
2023-04-16T16:53:39.100Z,56.09
2023-04-16T16:55:10.965Z,55.97
2023-04-16T16:56:46.986Z,56.25
2023-04-16T16:58:31.557Z,56.46
2023-04-16T17:00:11.320Z,56.93
2023-04-16T17:01:44.650Z,57.11
2023-04-16T17:03:20.421Z,57.26
2023-04-16T17:05:07.845Z,57.78
2023-04-16T17:06:52.927Z,58.22
2023-04-16T17:08:28.157Z,58.28
2023-04-16T17:10:13.294Z,58.52
2023-04-16T17:11:49.566Z,58.71
2023-04-16T17:13:34.418Z,58.98
2023-04-16T17:15:21.442Z,59.38
2023-04-16T17:17:02.365Z,59.62
2023-04-16T17:18:47.389Z,59.73
2023-04-16T17:20:32.461Z,59.71
2023-04-16T17:22:14.889Z,59.92
2023-04-16T17:24:08.454Z,60.05
2023-04-16T17:25:55.465Z,59.91
2023-04-16T17:27:44.967Z,60.32
2023-04-16T17:29:26.043Z,60.53
2023-04-16T17:30:50.665Z,60.84
2023-04-16T17:32:24.097Z,61.15
2023-04-16T17:34:10.629Z,61.28
2023-04-16T17:35:32.470Z,61.66
2023-04-16T17:37:06.027Z,62.18
2023-04-16T17:38:52.347Z,62.19
2023-04-16T17:40:25.470Z,62.63
2023-04-16T17:42:01.202Z,62.87
2023-04-16T17:43:34.366Z,62.92
2023-04-16T17:44:56.434Z,63.13
2023-04-16T17:46:29.825Z,63.72
2023-04-16T17:48:10.986Z,63.54
2023-04-16T17:49:46.760Z,63.90
2023-04-16T17:51:22.073Z,63.86
2023-04-16T17:53:07.704Z,63.92
2023-04-16T17:55:01.661Z,64.21
2023-04-16T17:56:50.772Z,64.34
2023-04-16T17:58:35.719Z,64.85
2023-04-16T18:00:12.358Z,65.20
2023-04-16T18:01:46.004Z,65.41
2023-04-16T18:03:24.480Z,65.96
2023-04-16T18:04:50.112Z,65.96
2023-04-16T18:06:26.416Z,66.42
2023-04-16T18:08:07.781Z,66.75
2023-04-16T18:09:53.416Z,67.00
2023-04-16T18:11:22.162Z,67.35
2023-04-16T18:12:57.043Z,67.44
2023-04-16T18:14:31.671Z,66.98
2023-04-16T18:16:16.471Z,67.57
2023-04-16T18:17:58.175Z,67.42
2023-04-16T18:19:43.576Z,67.30
2023-04-16T18:21:17.547Z,67.81
2023-04-16T18:23:02.772Z,67.82
2023-04-16T18:24:56.322Z,68.32
2023-04-16T18:26:22.961Z,68.55
2023-04-16T18:28:18.226Z,68.90
2023-04-16T18:29:45.343Z,69.24
2023-04-16T18:31:30.752Z,68.90
2023-04-16T18:33:42.797Z,69.05
2023-04-16T18:35:17.198Z,69.09
2023-04-16T18:37:10.842Z,68.87
2023-04-16T18:39:05.431Z,68.98
2023-04-16T18:40:59.120Z,69.24
2023-04-16T18:42:43.966Z,69.39
2023-04-16T18:44:10.764Z,69.61
2023-04-16T18:45:57.016Z,69.37
2023-04-16T18:47:21.108Z,69.66
2023-04-16T18:48:45.443Z,69.72
2023-04-16T18:50:30.260Z,69.41
2023-04-16T18:52:15.522Z,69.89
2023-04-16T18:54:01.240Z,69.97
2023-04-16T18:55:36.499Z,69.70
2023-04-16T18:57:21.900Z,69.93
2023-04-16T18:59:12.442Z,70.13
2023-04-16T19:00:46.673Z,69.90
2023-04-16T19:02:18.088Z,70.01
2023-04-16T19:03:42.535Z,70.08
2023-04-16T19:05:27.702Z,70.26
2023-04-16T19:07:01.618Z,70.08
2023-04-16T19:08:47.288Z,70.16
2023-04-16T19:10:32.373Z,70.33
2023-04-16T19:12:05.863Z,70.40
2023-04-16T19:13:39.212Z,70.36
2023-04-16T19:15:20.158Z,70.70
2023-04-16T19:16:53.952Z,70.96
2023-04-16T19:18:29.204Z,70.89
2023-04-16T19:20:23.539Z,70.79
2023-04-16T19:21:49.309Z,70.96
2023-04-16T19:23:23.251Z,71.44
2023-04-16T19:24:50.009Z,71.14
2023-04-16T19:26:16.030Z,71.20
2023-04-16T19:28:01.614Z,71.22
2023-04-16T19:29:54.917Z,70.99
2023-04-16T19:31:30.552Z,71.23
2023-04-16T19:33:06.273Z,71.26
2023-04-16T19:34:40.047Z,70.84
2023-04-16T19:36:24.978Z,70.89
2023-04-16T19:37:59.839Z,70.96
2023-04-16T19:39:33.131Z,70.70
2023-04-16T19:41:18.368Z,70.97
2023-04-16T19:42:52.190Z,71.06
2023-04-16T19:44:36.943Z,71.23
2023-04-16T19:46:22.573Z,71.03
2023-04-16T19:48:16.294Z,71.07
2023-04-16T19:49:59.147Z,71.05
2023-04-16T19:51:33.754Z,71.36
2023-04-16T19:53:28.155Z,71.13
2023-04-16T19:54:50.712Z,70.95
2023-04-16T19:56:24.001Z,71.09
2023-04-16T19:58:01.868Z,71.15
2023-04-16T19:59:32.648Z,71.35
2023-04-16T20:00:56.389Z,71.54
2023-04-16T20:02:32.621Z,71.18
2023-04-16T20:04:26.360Z,71.24
2023-04-16T20:06:08.035Z,71.56
2023-04-16T20:07:42.112Z,71.24
2023-04-16T20:09:27.458Z,71.36
2023-04-16T20:11:18.299Z,71.51
2023-04-16T20:12:54.473Z,71.52
2023-04-16T20:14:27.489Z,71.80
2023-04-16T20:16:13.365Z,71.68
2023-04-16T20:17:54.544Z,71.80
2023-04-16T20:19:40.847Z,71.89
2023-04-16T20:21:14.536Z,71.95
2023-04-16T20:22:48.178Z,71.87
2023-04-16T20:24:23.781Z,72.06
2023-04-16T20:26:01.969Z,71.88
2023-04-16T20:27:35.480Z,71.85
2023-04-16T20:29:11.962Z,71.78
2023-04-16T20:31:05.649Z,72.23
2023-04-16T20:32:50.517Z,72.26
2023-04-16T20:34:31.342Z,72.18
2023-04-16T20:36:16.444Z,72.33
2023-04-16T20:37:57.510Z,72.31
2023-04-16T20:39:31.992Z,72.45
2023-04-16T20:41:20.985Z,72.79
2023-04-16T20:42:56.530Z,72.57
2023-04-16T20:44:50.030Z,72.83
2023-04-16T20:48:32.141Z,72.78
2023-04-16T20:50:05.586Z,73.04
2023-04-16T20:51:29.393Z,73.07
2023-04-16T20:55:06.226Z,73.44
2023-04-16T20:56:47.372Z,73.59
2023-04-16T20:58:11.622Z,73.78
2023-04-16T20:59:36.896Z,73.72
2023-04-16T21:01:10.453Z,73.99
2023-04-16T21:02:41.828Z,74.23
2023-04-16T21:04:26.627Z,74.61
2023-04-16T21:05:53.840Z,74.47
2023-04-16T21:07:22.701Z,74.42
2023-04-16T21:08:52.225Z,74.22
2023-04-16T21:10:20.054Z,74.28
2023-04-16T21:11:56.007Z,74.34
2023-04-16T21:13:26.829Z,74.49
2023-04-16T21:14:53.795Z,74.58
2023-04-16T21:16:39.091Z,74.79
2023-04-16T21:18:23.695Z,74.64
2023-04-16T21:20:08.699Z,74.55
2023-04-16T21:21:30.770Z,74.55
2023-04-16T21:23:04.895Z,74.50
2023-04-16T21:24:38.160Z,74.61
2023-04-16T21:26:05.218Z,74.50